Time;durP1;ratioP1;P1;durP2;ratioP2;P2;SDS_P1;SDS_P2;PMS_P1;PMS_P2;Temp;Humidity;BMP_temperature;BMP_pressure;BME280_temperature;BME280_humidity;BME280_pressure;Samples;Min_cycle;Max_cycle;Signal;HPM_P1;HPM_P2
2023/07/07 00:01:01;;;;;;;10.38;3.20;;;;;;;;;;5051238;28;20024;-75
2023/07/07 00:03:27;;;;;;;10.00;2.95;;;;;;;;;;5052167;28;20032;-74
2023/07/07 00:05:54;;;;;;;8.32;3.13;;;;;;;;;;5052144;28;20473;-75
2023/07/07 00:08:20;;;;;;;6.88;3.30;;;;;;;;;;5051564;28;20496;-75
2023/07/07 00:10:47;;;;;;;7.88;3.03;;;;;;;;;;5051990;28;20052;-74
2023/07/07 00:13:14;;;;;;;7.90;2.83;;;;;;;;;;5052049;28;20400;-74
2023/07/07 00:15:47;;;;;;;7.07;2.95;;;;;;;;;;5052043;28;20051;-74
2023/07/07 00:18:26;;;;;;;8.15;3.00;;;;;;;;;;5052385;28;20029;-75
2023/07/07 00:20:52;;;;;;;3.05;2.72;;;;;;;;;;5051880;28;20036;-75
2023/07/07 00:23:19;;;;;;;7.15;3.10;;;;;;;;;;5051835;28;20023;-74
2023/07/07 00:25:45;;;;;;;7.82;3.08;;;;;;;;;;5051978;28;20039;-74
2023/07/07 00:28:11;;;;;;;5.93;2.90;;;;;;;;;;5051808;28;20025;-74
2023/07/07 00:30:37;;;;;;;5.80;3.15;;;;;;;;;;5052013;28;20021;-74
2023/07/07 00:33:04;;;;;;;8.45;2.95;;;;;;;;;;5051724;28;20017;-74
2023/07/07 00:35:30;;;;;;;5.93;2.90;;;;;;;;;;5033982;28;20044;-75
2023/07/07 00:37:56;;;;;;;16.42;3.25;;;;;;;;;;5051664;28;20028;-74
2023/07/07 00:40:23;;;;;;;5.97;2.92;;;;;;;;;;5051518;28;20025;-75
2023/07/07 00:42:49;;;;;;;5.40;3.50;;;;;;;;;;5051775;28;20036;-74
2023/07/07 00:45:20;;;;;;;4.35;2.97;;;;;;;;;;5034257;28;20029;-74
2023/07/07 00:47:53;;;;;;;13.30;3.17;;;;;;;;;;5051444;28;20033;-75
2023/07/07 00:50:21;;;;;;;6.88;3.15;;;;;;;;;;5051652;28;20021;-75
2023/07/07 00:52:47;;;;;;;7.15;2.58;;;;;;;;;;5051351;28;20176;-74
2023/07/07 00:55:17;;;;;;;6.18;3.63;;;;;;;;;;5033919;28;20037;-75
2023/07/07 00:57:44;;;;;;;6.57;2.90;;;;;;;;;;5017671;28;20032;-75
2023/07/07 01:00:11;;;;;;;7.18;2.90;;;;;;;;;;5051686;28;20036;-74
2023/07/07 01:02:38;;;;;;;6.20;3.05;;;;;;;;;;5051332;28;20472;-74
2023/07/07 01:05:05;;;;;;;6.80;3.25;;;;;;;;;;5051874;28;20029;-74
2023/07/07 01:07:36;;;;;;;8.43;2.78;;;;;;;;;;5051041;28;20021;-75
2023/07/07 01:10:02;;;;;;;7.47;3.17;;;;;;;;;;5051143;28;20017;-74
2023/07/07 01:12:28;;;;;;;7.57;3.35;;;;;;;;;;5053776;28;20033;-75
2023/07/07 01:14:55;;;;;;;5.95;3.30;;;;;;;;;;5055004;28;20421;-75
2023/07/07 01:17:21;;;;;;;4.90;2.90;;;;;;;;;;5055002;28;20029;-74
2023/07/07 01:19:58;;;;;;;7.18;2.92;;;;;;;;;;5055024;28;20090;-74
2023/07/07 01:22:36;;;;;;;8.25;3.05;;;;;;;;;;5054407;28;20470;-75
2023/07/07 01:25:12;;;;;;;6.20;3.03;;;;;;;;;;5055366;28;20029;-74
2023/07/07 01:27:57;;;;;;;5.45;3.28;;;;;;;;;;5054859;28;20027;-75
2023/07/07 01:30:52;;;;;;;8.10;3.28;;;;;;;;;;5054892;28;20051;-75
2023/07/07 01:33:22;;;;;;;6.05;3.03;;;;;;;;;;5033641;28;20067;-74
2023/07/07 01:35:49;;;;;;;7.10;3.33;;;;;;;;;;5054426;28;20429;-75
2023/07/07 01:38:32;;;;;;;6.43;2.92;;;;;;;;;;5054997;28;20039;-75
2023/07/07 01:41:17;;;;;;;8.43;3.65;;;;;;;;;;5054439;28;20484;-74
2023/07/07 01:43:49;;;;;;;6.28;3.13;;;;;;;;;;5054632;28;20021;-74
2023/07/07 01:46:28;;;;;;;8.00;3.20;;;;;;;;;;5054426;28;20025;-74
2023/07/07 01:48:54;;;;;;;7.15;3.10;;;;;;;;;;5054811;28;20492;-74
2023/07/07 01:51:23;;;;;;;11.20;3.17;;;;;;;;;;5054148;28;20392;-74
2023/07/07 01:53:51;;;;;;;8.32;3.67;;;;;;;;;;5054092;28;20033;-74
2023/07/07 01:56:21;;;;;;;8.10;3.33;;;;;;;;;;5054313;28;20033;-75
2023/07/07 01:58:47;;;;;;;7.72;3.45;;;;;;;;;;5054318;28;20029;-74
2023/07/07 02:01:14;;;;;;;7.75;3.30;;;;;;;;;;5054047;28;20043;-74
2023/07/07 02:03:40;;;;;;;6.63;3.10;;;;;;;;;;5054305;28;20400;-75
2023/07/07 02:06:06;;;;;;;6.85;3.42;;;;;;;;;;5054201;28;20473;-75
2023/07/07 02:08:33;;;;;;;8.55;3.17;;;;;;;;;;5054137;28;20033;-74
2023/07/07 02:10:59;;;;;;;8.43;3.10;;;;;;;;;;5054091;28;20047;-74
2023/07/07 02:13:25;;;;;;;9.88;3.88;;;;;;;;;;5054038;28;20489;-75
2023/07/07 02:15:52;;;;;;;6.45;3.35;;;;;;;;;;5053788;28;20041;-74
2023/07/07 02:18:19;;;;;;;4.97;2.92;;;;;;;;;;5053389;28;20025;-74
2023/07/07 02:20:45;;;;;;;10.52;3.65;;;;;;;;;;5053932;28;20388;-75
2023/07/07 02:23:12;;;;;;;5.65;4.03;;;;;;;;;;5052830;28;20039;-75
2023/07/07 02:25:38;;;;;;;6.35;3.25;;;;;;;;;;5053996;28;20035;-74
2023/07/07 02:28:04;;;;;;;6.10;3.30;;;;;;;;;;5053668;28;20379;-75
2023/07/07 02:30:31;;;;;;;5.43;3.28;;;;;;;;;;5053576;28;20388;-74
2023/07/07 02:32:58;;;;;;;6.35;3.35;;;;;;;;;;5053534;28;20023;-74
2023/07/07 02:35:24;;;;;;;7.90;3.33;;;;;;;;;;5053556;28;20029;-75
2023/07/07 02:37:51;;;;;;;6.85;3.22;;;;;;;;;;5053422;28;20028;-74
2023/07/07 02:40:17;;;;;;;5.47;2.95;;;;;;;;;;5053483;28;20447;-75
2023/07/07 02:42:46;;;;;;;4.47;3.00;;;;;;;;;;5053442;28;20021;-75
2023/07/07 02:45:12;;;;;;;5.57;2.95;;;;;;;;;;5053432;28;20110;-75
2023/07/07 02:47:38;;;;;;;8.52;3.25;;;;;;;;;;5052992;28;20020;-74
2023/07/07 02:50:05;;;;;;;7.57;3.28;;;;;;;;;;5053309;28;20031;-75
2023/07/07 02:52:31;;;;;;;10.23;3.30;;;;;;;;;;5053269;28;20024;-75
2023/07/07 02:54:57;;;;;;;5.85;3.30;;;;;;;;;;5053175;28;20041;-74
2023/07/07 02:57:24;;;;;;;6.13;3.20;;;;;;;;;;5053348;28;20478;-75
2023/07/07 02:59:50;;;;;;;5.03;3.00;;;;;;;;;;5053147;28;20070;-75
2023/07/07 03:02:16;;;;;;;6.35;3.40;;;;;;;;;;5052935;28;20074;-75
2023/07/07 03:04:46;;;;;;;7.40;3.35;;;;;;;;;;5053064;28;20023;-74
2023/07/07 03:07:12;;;;;;;7.25;3.47;;;;;;;;;;5052982;28;20039;-74
2023/07/07 03:09:38;;;;;;;6.57;3.40;;;;;;;;;;5052950;28;20021;-75
2023/07/07 03:12:05;;;;;;;6.05;2.97;;;;;;;;;;5052756;28;20045;-74
2023/07/07 03:14:31;;;;;;;5.45;3.40;;;;;;;;;;5052676;28;20513;-75
2023/07/07 03:16:58;;;;;;;4.50;2.83;;;;;;;;;;5052430;28;20021;-75
2023/07/07 03:19:24;;;;;;;7.85;3.10;;;;;;;;;;5052845;28;20021;-75
2023/07/07 03:21:54;;;;;;;8.65;3.10;;;;;;;;;;5034801;28;20031;-74
2023/07/07 03:24:20;;;;;;;7.68;3.50;;;;;;;;;;5052562;28;20389;-75
2023/07/07 03:26:47;;;;;;;9.02;3.45;;;;;;;;;;5052801;28;20047;-74
2023/07/07 03:29:13;;;;;;;7.30;3.13;;;;;;;;;;5052518;28;20024;-74
2023/07/07 03:31:39;;;;;;;5.63;3.20;;;;;;;;;;5034670;28;20035;-75
2023/07/07 03:34:07;;;;;;;4.97;3.25;;;;;;;;;;5052539;28;20025;-74
2023/07/07 03:36:34;;;;;;;12.50;3.83;;;;;;;;;;5052321;28;20503;-74
2023/07/07 03:39:01;;;;;;;10.98;3.83;;;;;;;;;;5052718;28;20029;-75
2023/07/07 03:41:28;;;;;;;9.50;3.35;;;;;;;;;;5052354;28;20412;-75
2023/07/07 03:43:55;;;;;;;8.23;3.88;;;;;;;;;;5052294;28;20055;-75
2023/07/07 03:46:23;;;;;;;6.03;2.95;;;;;;;;;;5051891;28;20028;-75
2023/07/07 03:48:49;;;;;;;6.13;3.42;;;;;;;;;;5034675;28;20035;-75
2023/07/07 03:51:17;;;;;;;6.40;3.30;;;;;;;;;;5052503;28;20035;-75
2023/07/07 03:53:43;;;;;;;8.15;3.65;;;;;;;;;;5052137;28;20021;-74
2023/07/07 03:56:09;;;;;;;8.70;3.33;;;;;;;;;;5052196;28;20035;-74
2023/07/07 03:58:36;;;;;;;5.05;3.17;;;;;;;;;;5052127;28;20493;-74
2023/07/07 04:01:07;;;;;;;6.95;3.53;;;;;;;;;;5051686;28;20025;-75
2023/07/07 04:03:33;;;;;;;7.90;3.25;;;;;;;;;;5051950;28;20021;-75
2023/07/07 04:06:00;;;;;;;9.52;3.38;;;;;;;;;;5034467;28;20028;-75
2023/07/07 04:08:26;;;;;;;8.48;3.47;;;;;;;;;;5052153;28;20017;-77
2023/07/07 04:11:10;;;;;;;8.10;3.35;;;;;;;;;;5051864;28;20091;-76
2023/07/07 04:13:37;;;;;;;8.07;3.55;;;;;;;;;;5052099;28;20033;-76
2023/07/07 04:16:22;;;;;;;9.65;3.25;;;;;;;;;;5051427;28;20037;-77
2023/07/07 04:18:50;;;;;;;10.65;3.78;;;;;;;;;;5052049;28;20385;-77
2023/07/07 04:21:21;;;;;;;6.68;3.60;;;;;;;;;;5051962;28;20028;-77
2023/07/07 04:23:48;;;;;;;5.85;2.90;;;;;;;;;;5051941;28;20033;-77
2023/07/07 04:26:15;;;;;;;7.93;3.85;;;;;;;;;;5051728;28;20028;-76
2023/07/07 04:28:41;;;;;;;8.02;3.40;;;;;;;;;;5051535;28;20485;-77
2023/07/07 04:31:09;;;;;;;4.78;3.50;;;;;;;;;;5051779;28;20019;-77
2023/07/07 04:33:35;;;;;;;9.63;3.53;;;;;;;;;;5051973;28;20037;-77
2023/07/07 04:36:03;;;;;;;10.13;3.53;;;;;;;;;;5051814;28;20048;-76
2023/07/07 04:38:32;;;;;;;13.75;3.90;;;;;;;;;;5051744;28;20021;-77
2023/07/07 04:41:07;;;;;;;7.93;3.67;;;;;;;;;;5051727;28;20037;-76
2023/07/07 04:43:34;;;;;;;6.10;3.72;;;;;;;;;;5051342;28;20009;-77
2023/07/07 04:46:01;;;;;;;7.75;4.20;;;;;;;;;;5051793;28;20029;-77
2023/07/07 04:48:27;;;;;;;6.03;3.05;;;;;;;;;;5055614;28;20420;-76
2023/07/07 04:50:58;;;;;;;6.80;3.50;;;;;;;;;;5055640;28;20375;-76
2023/07/07 04:53:25;;;;;;;;;;;;;;;;;;5056106;28;20371;-77
2023/07/07 04:55:51;;;;;;;6.25;3.53;;;;;;;;;;5055335;28;19939;-77
2023/07/07 04:58:17;;;;;;;10.55;3.60;;;;;;;;;;5037365;28;20029;-77
2023/07/07 05:00:44;;;;;;;5.28;3.13;;;;;;;;;;5055563;28;20037;-76
2023/07/07 05:03:10;;;;;;;7.10;3.70;;;;;;;;;;5055171;28;20035;-76
2023/07/07 05:05:36;;;;;;;6.50;3.88;;;;;;;;;;5055343;28;20021;-77
2023/07/07 05:08:03;;;;;;;6.28;3.72;;;;;;;;;;5055239;28;20021;-76
2023/07/07 05:10:29;;;;;;;8.32;3.90;;;;;;;;;;5055085;28;20497;-77
2023/07/07 05:12:55;;;;;;;10.80;3.65;;;;;;;;;;5054886;28;20031;-76
2023/07/07 05:15:24;;;;;;;7.65;3.40;;;;;;;;;;5055034;28;20029;-77
2023/07/07 05:17:53;;;;;;;6.05;3.00;;;;;;;;;;5054960;28;20474;-77
2023/07/07 05:20:19;;;;;;;7.38;3.58;;;;;;;;;;5054920;28;20035;-77
2023/07/07 05:22:45;;;;;;;10.38;3.80;;;;;;;;;;5054968;28;20482;-77
2023/07/07 05:25:12;;;;;;;4.80;3.13;;;;;;;;;;5054826;28;20025;-77
2023/07/07 05:27:38;;;;;;;8.10;3.33;;;;;;;;;;5054631;28;20350;-76
2023/07/07 05:30:05;;;;;;;6.47;3.42;;;;;;;;;;5055153;28;20029;-76
2023/07/07 05:32:31;;;;;;;5.88;3.47;;;;;;;;;;5055039;28;20023;-77
2023/07/07 05:34:58;;;;;;;9.85;3.65;;;;;;;;;;5054802;28;20032;-74
2023/07/07 05:37:24;;;;;;;5.65;3.40;;;;;;;;;;5054747;28;20450;-77
2023/07/07 05:39:50;;;;;;;6.85;3.60;;;;;;;;;;5054555;28;20025;-77
2023/07/07 05:42:17;;;;;;;5.55;3.33;;;;;;;;;;5054540;28;20091;-76
2023/07/07 05:44:43;;;;;;;10.15;3.70;;;;;;;;;;5036634;28;20033;-77
2023/07/07 05:47:09;;;;;;;7.50;4.13;;;;;;;;;;5054382;28;20025;-77
2023/07/07 05:49:35;;;;;;;9.02;3.70;;;;;;;;;;5054770;28;20036;-76
2023/07/07 05:52:02;;;;;;;11.95;3.60;;;;;;;;;;5054656;28;20021;-77
2023/07/07 05:54:28;;;;;;;11.77;3.65;;;;;;;;;;5054349;28;20029;-76
2023/07/07 05:56:59;;;;;;;4.70;3.65;;;;;;;;;;5054070;28;20051;-77
2023/07/07 05:59:25;;;;;;;6.05;2.97;;;;;;;;;;5052982;28;20032;-77
2023/07/07 06:01:51;;;;;;;7.45;3.60;;;;;;;;;;5035119;28;20035;-77
2023/07/07 06:04:18;;;;;;;7.65;3.47;;;;;;;;;;5033953;28;20048;-77
2023/07/07 06:06:44;;;;;;;9.50;3.55;;;;;;;;;;5034129;28;20048;-77
2023/07/07 06:09:11;;;;;;;7.80;3.78;;;;;;;;;;5034084;28;20393;-77
2023/07/07 06:11:37;;;;;;;8.85;3.80;;;;;;;;;;5033648;28;20425;-77
2023/07/07 06:14:04;;;;;;;7.75;3.30;;;;;;;;;;5035143;28;20036;-77
2023/07/07 06:16:30;;;;;;;7.15;3.63;;;;;;;;;;5053747;28;20473;-77
2023/07/07 06:18:57;;;;;;;10.00;3.90;;;;;;;;;;5043577;28;20025;-77
2023/07/07 06:21:23;;;;;;;7.65;3.45;;;;;;;;;;5033930;28;20404;-77
2023/07/07 06:23:50;;;;;;;7.53;3.92;;;;;;;;;;5023296;28;20021;-76
2023/07/07 06:26:16;;;;;;;10.40;3.35;;;;;;;;;;5013113;28;20029;-77
2023/07/07 06:28:43;;;;;;;10.45;4.10;;;;;;;;;;5024884;28;20044;-77
2023/07/07 06:31:09;;;;;;;7.80;3.42;;;;;;;;;;5024478;28;20040;-77
2023/07/07 06:33:36;;;;;;;11.73;3.40;;;;;;;;;;5022791;28;20020;-77
2023/07/07 06:36:03;;;;;;;8.32;3.75;;;;;;;;;;5018220;28;20033;-77
2023/07/07 06:38:29;;;;;;;13.15;4.00;;;;;;;;;;5010717;28;20025;-77
2023/07/07 06:40:55;;;;;;;8.98;3.50;;;;;;;;;;5027055;28;20028;-77
2023/07/07 06:43:22;;;;;;;13.00;3.88;;;;;;;;;;5032996;28;20055;-77
2023/07/07 06:45:49;;;;;;;8.52;3.65;;;;;;;;;;5002072;28;20057;-78
2023/07/07 06:48:15;;;;;;;6.28;3.65;;;;;;;;;;5027606;28;20022;-77
2023/07/07 06:50:42;;;;;;;5.60;3.47;;;;;;;;;;5030382;28;20034;-77
2023/07/07 06:53:12;;;;;;;8.07;3.58;;;;;;;;;;5026932;28;20029;-75
2023/07/07 06:55:40;;;;;;;12.23;4.05;;;;;;;;;;5028801;28;20079;-75
2023/07/07 06:58:06;;;;;;;7.20;3.63;;;;;;;;;;5033140;28;20040;-77
2023/07/07 07:00:33;;;;;;;6.10;3.88;;;;;;;;;;5029421;28;20030;-74
2023/07/07 07:02:59;;;;;;;7.90;3.90;;;;;;;;;;5029855;28;20047;-74
2023/07/07 07:05:25;;;;;;;5.28;3.80;;;;;;;;;;5029632;28;20022;-74
2023/07/07 07:07:52;;;;;;;6.32;3.83;;;;;;;;;;5025156;28;20058;-74
2023/07/07 07:10:18;;;;;;;7.72;3.88;;;;;;;;;;5020124;28;20048;-74
2023/07/07 07:12:44;;;;;;;6.53;3.05;;;;;;;;;;5021689;28;20026;-74
2023/07/07 07:15:11;;;;;;;11.10;3.92;;;;;;;;;;5027614;28;20029;-74
2023/07/07 07:17:37;;;;;;;6.50;3.53;;;;;;;;;;5025450;28;20018;-73
2023/07/07 07:20:06;;;;;;;6.63;3.25;;;;;;;;;;5019517;28;20048;-73
2023/07/07 07:22:32;;;;;;;6.45;3.30;;;;;;;;;;5016026;28;20487;-73
2023/07/07 07:24:59;;;;;;;5.38;2.80;;;;;;;;;;5022363;28;20032;-73
2023/07/07 07:27:25;;;;;;;8.32;3.28;;;;;;;;;;5021961;28;20032;-73
2023/07/07 07:29:51;;;;;;;18.98;5.28;;;;;;;;;;5022928;28;20036;-73
2023/07/07 07:32:18;;;;;;;9.23;3.83;;;;;;;;;;5021150;28;20385;-74
2023/07/07 07:34:45;;;;;;;4.43;2.70;;;;;;;;;;5004613;28;20030;-73
2023/07/07 07:37:11;;;;;;;12.80;2.90;;;;;;;;;;5022781;28;20445;-73
2023/07/07 07:39:38;;;;;;;7.53;3.05;;;;;;;;;;5022953;28;20385;-73
2023/07/07 07:42:04;;;;;;;7.50;2.97;;;;;;;;;;5022011;28;20022;-73
2023/07/07 07:44:31;;;;;;;5.30;2.55;;;;;;;;;;5020661;28;20029;-73
2023/07/07 07:46:58;;;;;;;5.80;3.33;;;;;;;;;;5026198;28;20026;-74
2023/07/07 07:49:25;;;;;;;5.28;2.72;;;;;;;;;;5024618;28;20040;-74
2023/07/07 07:51:52;;;;;;;5.57;2.42;;;;;;;;;;5026528;28;20026;-73
2023/07/07 07:54:18;;;;;;;5.82;2.42;;;;;;;;;;5027925;28;20026;-73
2023/07/07 07:56:45;;;;;;;4.82;2.70;;;;;;;;;;5024172;28;20030;-73
2023/07/07 07:59:12;;;;;;;5.53;2.60;;;;;;;;;;5022462;28;20379;-72
2023/07/07 08:01:38;;;;;;;3.25;2.35;;;;;;;;;;5006770;28;20035;-72
2023/07/07 08:04:05;;;;;;;5.43;2.42;;;;;;;;;;5027977;28;20030;-73
2023/07/07 08:06:32;;;;;;;5.00;2.60;;;;;;;;;;5022762;28;20441;-73
2023/07/07 08:08:58;;;;;;;4.72;2.38;;;;;;;;;;5023797;28;20022;-73
2023/07/07 08:11:48;;;;;;;5.47;2.50;;;;;;;;;;5030071;28;20049;-73
2023/07/07 08:14:19;;;;;;;5.57;2.55;;;;;;;;;;5028461;28;20041;-73
2023/07/07 08:16:46;;;;;;;4.95;2.40;;;;;;;;;;5028903;28;20026;-73
2023/07/07 08:19:12;;;;;;;6.95;2.15;;;;;;;;;;5029940;28;20017;-73
2023/07/07 08:21:39;;;;;;;6.45;2.17;;;;;;;;;;5014215;28;20029;-73
2023/07/07 08:24:06;;;;;;;6.47;2.50;;;;;;;;;;5031815;28;20025;-73
2023/07/07 08:26:33;;;;;;;4.03;2.08;;;;;;;;;;5028801;28;20029;-73
2023/07/07 08:28:59;;;;;;;3.15;2.33;;;;;;;;;;5007388;28;20017;-73
2023/07/07 08:31:26;;;;;;;7.13;2.03;;;;;;;;;;5024662;28;20393;-73
2023/07/07 08:33:53;;;;;;;9.55;2.60;;;;;;;;;;5026338;28;20028;-73
2023/07/07 08:36:19;;;;;;;5.82;2.40;;;;;;;;;;5006909;28;20512;-73
2023/07/07 08:38:45;;;;;;;7.13;2.10;;;;;;;;;;5027146;28;20059;-73
2023/07/07 08:41:12;;;;;;;4.53;2.33;;;;;;;;;;5033474;28;20033;-77
2023/07/07 08:43:38;;;;;;;8.50;2.60;;;;;;;;;;5031074;28;20032;-73
2023/07/07 08:46:31;;;;;;;4.65;2.50;;;;;;;;;;5026889;28;20552;-73
2023/07/07 08:49:01;;;;;;;5.80;2.17;;;;;;;;;;5026169;28;20044;-73
2023/07/07 08:51:47;;;;;;;5.57;2.40;;;;;;;;;;5025866;28;20021;-74
2023/07/07 08:54:19;;;;;;;5.47;1.88;;;;;;;;;;5027215;28;20256;-73
2023/07/07 08:56:50;;;;;;;4.55;2.65;;;;;;;;;;5034970;28;20041;-73
2023/07/07 08:59:30;;;;;;;5.07;2.33;;;;;;;;;;5028330;28;20042;-73
2023/07/07 09:01:56;;;;;;;;;;;;;;;;;;5024715;28;20033;-73
2023/07/07 09:04:22;;;;;;;6.63;2.75;;;;;;;;;;5034679;28;20365;-74
2023/07/07 09:06:52;;;;;;;7.15;2.42;;;;;;;;;;5034648;28;20025;-74
2023/07/07 09:09:18;;;;;;;5.45;2.85;;;;;;;;;;5026888;28;20039;-73
2023/07/07 09:11:53;;;;;;;6.35;2.50;;;;;;;;;;5023411;28;20053;-74
2023/07/07 09:14:20;;;;;;;6.68;2.03;;;;;;;;;;5025589;28;20025;-74
2023/07/07 09:16:48;;;;;;;3.38;2.30;;;;;;;;;;5025084;28;20554;-74
2023/07/07 09:19:17;;;;;;;5.78;2.50;;;;;;;;;;5025027;28;20006;-73
2023/07/07 09:21:44;;;;;;;;;;;;;;;;;;5026014;28;20021;-74
2023/07/07 09:24:25;;;;;;;8.52;2.80;;;;;;;;;;5010688;28;19911;-74
2023/07/07 09:26:53;;;;;;;8.18;2.80;;;;;;;;;;5025273;28;20021;-74
2023/07/07 09:29:22;;;;;;;8.40;2.72;;;;;;;;;;5024952;28;20388;-75
2023/07/07 09:31:48;;;;;;;4.10;2.78;;;;;;;;;;5024150;28;20018;-76
2023/07/07 09:34:15;;;;;;;7.78;3.20;;;;;;;;;;5032714;28;20028;-75
2023/07/07 09:36:50;;;;;;;5.40;2.60;;;;;;;;;;5030066;28;20034;-75
2023/07/07 09:39:22;;;;;;;3.60;2.45;;;;;;;;;;5030503;28;20482;-76
2023/07/07 09:41:57;;;;;;;11.52;3.22;;;;;;;;;;5031234;28;20028;-75
2023/07/07 09:44:33;;;;;;;8.15;3.08;;;;;;;;;;5012596;28;20021;-75
2023/07/07 09:46:59;;;;;;;7.07;2.90;;;;;;;;;;5030004;28;20024;-75
2023/07/07 09:49:36;;;;;;;8.07;3.38;;;;;;;;;;5033829;28;20014;-75
2023/07/07 09:52:08;;;;;;;9.30;3.40;;;;;;;;;;5034106;28;20025;-75
2023/07/07 09:54:35;;;;;;;5.65;3.15;;;;;;;;;;5034175;28;20040;-76
2023/07/07 09:57:04;;;;;;;6.68;2.75;;;;;;;;;;5033040;28;20083;-75
2023/07/07 09:59:43;;;;;;;6.13;3.22;;;;;;;;;;5034057;28;20051;-75
2023/07/07 10:02:13;;;;;;;5.05;2.97;;;;;;;;;;5027714;28;20021;-75
2023/07/07 10:04:39;;;;;;;;;;;;;;;;;;5014504;28;20405;-76
2023/07/07 10:07:07;;;;;;;6.47;3.13;;;;;;;;;;5015030;28;19917;-75
2023/07/07 10:09:34;;;;;;;5.47;3.30;;;;;;;;;;5014383;28;20033;-75
2023/07/07 10:12:00;;;;;;;11.63;3.13;;;;;;;;;;4993792;28;20463;-75
2023/07/07 10:14:29;;;;;;;8.07;3.28;;;;;;;;;;5002684;28;20044;-75
2023/07/07 10:17:02;;;;;;;6.05;2.90;;;;;;;;;;5024885;28;20022;-75
2023/07/07 10:19:28;;;;;;;5.78;3.25;;;;;;;;;;5011915;28;20029;-76
2023/07/07 10:21:55;;;;;;;6.07;3.22;;;;;;;;;;5012766;28;20030;-75
2023/07/07 10:24:21;;;;;;;7.80;3.17;;;;;;;;;;5008674;28;20030;-75
2023/07/07 10:26:48;;;;;;;7.10;3.15;;;;;;;;;;5013857;28;20482;-76
2023/07/07 10:29:21;;;;;;;6.78;3.03;;;;;;;;;;5009913;28;20034;-75
2023/07/07 10:31:48;;;;;;;7.63;3.08;;;;;;;;;;4997645;28;20027;-76
2023/07/07 10:34:32;;;;;;;5.20;2.65;;;;;;;;;;4994392;28;20105;-75
2023/07/07 10:36:59;;;;;;;5.60;2.97;;;;;;;;;;4994097;28;20534;-75
2023/07/07 10:39:32;;;;;;;8.85;2.85;;;;;;;;;;4994400;28;20426;-76
2023/07/07 10:41:58;;;;;;;8.02;3.08;;;;;;;;;;4994004;28;20032;-76
2023/07/07 10:44:27;;;;;;;6.97;3.28;;;;;;;;;;4993481;28;20076;-76
2023/07/07 10:46:54;;;;;;;5.78;3.05;;;;;;;;;;4993681;28;20033;-75
2023/07/07 10:49:24;;;;;;;6.07;3.13;;;;;;;;;;4993932;28;20041;-76
2023/07/07 10:51:53;;;;;;;7.40;2.90;;;;;;;;;;4993803;28;20437;-75
2023/07/07 10:54:36;;;;;;;4.40;2.87;;;;;;;;;;4992879;28;20045;-75
2023/07/07 10:57:10;;;;;;;12.10;2.90;;;;;;;;;;4993760;28;20081;-75
2023/07/07 10:59:39;;;;;;;6.25;3.30;;;;;;;;;;4992711;28;20038;-76
2023/07/07 11:02:26;;;;;;;6.13;3.47;;;;;;;;;;4993423;28;20030;-75
2023/07/07 11:05:11;;;;;;;9.52;3.20;;;;;;;;;;4993519;28;20522;-76
2023/07/07 11:07:57;;;;;;;8.13;2.60;;;;;;;;;;4993927;28;20080;-76
2023/07/07 11:10:42;;;;;;;6.43;3.00;;;;;;;;;;4997056;28;20516;-75
2023/07/07 11:13:09;;;;;;;6.78;3.47;;;;;;;;;;5012973;28;20034;-75
2023/07/07 11:15:35;;;;;;;7.53;2.83;;;;;;;;;;5040339;28;20045;-75
2023/07/07 11:18:01;;;;;;;6.35;2.90;;;;;;;;;;5052635;28;20028;-75
2023/07/07 11:20:36;;;;;;;7.10;3.03;;;;;;;;;;5042059;28;20021;-75
2023/07/07 11:23:10;;;;;;;6.90;3.05;;;;;;;;;;5032635;28;20036;-75
2023/07/07 11:25:40;;;;;;;7.80;2.97;;;;;;;;;;5031916;28;20029;-75
2023/07/07 11:28:31;;;;;;;8.65;3.22;;;;;;;;;;5032554;28;20021;-75
2023/07/07 11:31:18;;;;;;;6.35;3.40;;;;;;;;;;5032165;28;20040;-75
2023/07/07 11:33:47;;;;;;;5.43;2.90;;;;;;;;;;5032372;28;20029;-75
2023/07/07 11:36:20;;;;;;;8.45;2.92;;;;;;;;;;5032078;28;20041;-75
2023/07/07 11:38:46;;;;;;;5.20;2.75;;;;;;;;;;5024507;28;20041;-75
2023/07/07 11:41:18;;;;;;;7.70;3.28;;;;;;;;;;5032039;28;20021;-75
2023/07/07 11:43:47;;;;;;;7.75;3.33;;;;;;;;;;5031756;28;20045;-74
2023/07/07 11:46:23;;;;;;;6.30;3.37;;;;;;;;;;5014600;28;20033;-76
2023/07/07 11:48:58;;;;;;;8.85;3.40;;;;;;;;;;5032418;28;20034;-75
2023/07/07 11:51:43;;;;;;;5.95;3.13;;;;;;;;;;5010817;28;20080;-76
2023/07/07 11:54:28;;;;;;;9.38;3.00;;;;;;;;;;5028267;28;20035;-76
2023/07/07 11:57:03;;;;;;;5.97;3.15;;;;;;;;;;5031952;28;20393;-78
2023/07/07 11:59:39;;;;;;;7.88;3.20;;;;;;;;;;5030518;28;20511;-79
2023/07/07 12:02:26;;;;;;;6.68;3.05;;;;;;;;;;5024975;28;20034;-77
2023/07/07 12:04:54;;;;;;;7.43;2.97;;;;;;;;;;5031562;28;20033;-78
2023/07/07 12:07:25;;;;;;;6.30;3.13;;;;;;;;;;5031987;28;20033;-80
2023/07/07 12:09:53;;;;;;;5.30;2.95;;;;;;;;;;5031563;28;20026;-77
2023/07/07 12:12:36;;;;;;;5.30;3.13;;;;;;;;;;5031589;28;20046;-78
2023/07/07 12:15:10;;;;;;;7.50;3.20;;;;;;;;;;5031414;28;20115;-78
2023/07/07 12:17:39;;;;;;;6.90;3.25;;;;;;;;;;5029947;28;20018;-78
2023/07/07 12:20:10;;;;;;;6.38;3.05;;;;;;;;;;5017132;28;20034;-79
2023/07/07 12:22:40;;;;;;;6.55;3.33;;;;;;;;;;4994065;28;20393;-79
2023/07/07 12:25:15;;;;;;;7.60;3.00;;;;;;;;;;5011619;28;20022;-79
2023/07/07 12:27:45;;;;;;;4.05;2.75;;;;;;;;;;4993660;28;20422;-78
2023/07/07 12:30:16;;;;;;;8.98;2.65;;;;;;;;;;4994062;28;20076;-79
2023/07/07 12:32:42;;;;;;;5.70;2.90;;;;;;;;;;5011499;28;20430;-78
2023/07/07 12:35:27;;;;;;;6.05;2.92;;;;;;;;;;4993753;28;20041;-78
2023/07/07 12:37:58;;;;;;;4.40;2.90;;;;;;;;;;5011228;28;20028;-78
2023/07/07 12:40:25;;;;;;;11.38;3.40;;;;;;;;;;5008871;28;20032;-77
2023/07/07 12:42:58;;;;;;;6.70;3.10;;;;;;;;;;4993534;28;20380;-77
2023/07/07 12:45:29;;;;;;;5.72;3.08;;;;;;;;;;5011074;28;20390;-74
2023/07/07 12:48:05;;;;;;;5.13;3.08;;;;;;;;;;5010809;28;20026;-74
2023/07/07 12:50:35;;;;;;;5.30;2.88;;;;;;;;;;5018012;28;20383;-74
2023/07/07 12:53:03;;;;;;;5.13;3.15;;;;;;;;;;5026233;28;20359;-74
2023/07/07 12:55:30;;;;;;;9.98;2.72;;;;;;;;;;5026440;28;20043;-74
2023/07/07 12:58:06;;;;;;;5.85;3.05;;;;;;;;;;5026770;28;20035;-75
2023/07/07 13:00:39;;;;;;;8.68;3.35;;;;;;;;;;5016857;28;20052;-75
2023/07/07 13:03:11;;;;;;;10.93;3.45;;;;;;;;;;5014736;28;20028;-75
2023/07/07 13:05:43;;;;;;;6.97;3.30;;;;;;;;;;4992705;28;20034;-75
2023/07/07 13:08:10;;;;;;;6.05;3.30;;;;;;;;;;5031273;28;20033;-74
2023/07/07 13:10:56;;;;;;;6.07;3.10;;;;;;;;;;5014451;28;20038;-75
2023/07/07 13:13:26;;;;;;;10.45;2.97;;;;;;;;;;5031100;28;20038;-75
2023/07/07 13:15:54;;;;;;;9.50;3.22;;;;;;;;;;5033222;28;20489;-75
2023/07/07 13:18:20;;;;;;;5.05;3.28;;;;;;;;;;5031350;28;20017;-75
2023/07/07 13:20:48;;;;;;;4.82;3.22;;;;;;;;;;5022794;28;20033;-75
2023/07/07 13:23:14;;;;;;;7.30;3.20;;;;;;;;;;5022318;28;20026;-74
2023/07/07 13:25:45;;;;;;;6.97;3.10;;;;;;;;;;5013799;28;20486;-75
2023/07/07 13:28:13;;;;;;;7.25;3.15;;;;;;;;;;5014484;28;20014;-75
2023/07/07 13:30:41;;;;;;;9.93;3.08;;;;;;;;;;5014288;28;20030;-74
2023/07/07 13:33:12;;;;;;;7.82;2.97;;;;;;;;;;4996613;28;20486;-75
2023/07/07 13:35:42;;;;;;;6.40;3.20;;;;;;;;;;5014187;28;20030;-75
2023/07/07 13:38:10;;;;;;;8.77;2.88;;;;;;;;;;5014507;28;20032;-75
2023/07/07 13:40:37;;;;;;;7.13;2.80;;;;;;;;;;4996056;28;20044;-74
2023/07/07 13:43:04;;;;;;;7.57;3.28;;;;;;;;;;5013318;28;20022;-75
2023/07/07 13:45:32;;;;;;;6.50;2.70;;;;;;;;;;5013928;28;20028;-74
2023/07/07 13:48:00;;;;;;;12.60;3.28;;;;;;;;;;5013807;28;20013;-74
2023/07/07 13:50:28;;;;;;;5.38;3.30;;;;;;;;;;5020431;28;20025;-75
2023/07/07 13:52:59;;;;;;;7.97;4.22;;;;;;;;;;5023002;28;20026;-75
2023/07/07 13:55:30;;;;;;;9.52;3.25;;;;;;;;;;5029587;28;20034;-74
2023/07/07 13:57:57;;;;;;;8.23;3.92;;;;;;;;;;5024074;28;20401;-74
2023/07/07 14:00:28;;;;;;;7.82;3.28;;;;;;;;;;5025598;28;20032;-75
2023/07/07 14:02:54;;;;;;;10.48;3.10;;;;;;;;;;5029946;28;20082;-74
2023/07/07 14:05:21;;;;;;;6.68;3.40;;;;;;;;;;5032680;28;20368;-75
2023/07/07 14:07:51;;;;;;;8.00;3.10;;;;;;;;;;5031377;28;20028;-74
2023/07/07 14:10:36;;;;;;;8.20;3.25;;;;;;;;;;5030865;28;20071;-74
2023/07/07 14:13:04;;;;;;;4.32;3.28;;;;;;;;;;5012967;28;20036;-74
2023/07/07 14:15:33;;;;;;;9.18;3.15;;;;;;;;;;5035740;28;20033;-75
2023/07/07 14:18:01;;;;;;;4.97;3.23;;;;;;;;;;5025325;28;20029;-74
2023/07/07 14:20:29;;;;;;;4.60;3.17;;;;;;;;;;5011003;28;20785;-74
2023/07/07 14:22:56;;;;;;;6.13;3.40;;;;;;;;;;5025354;28;20032;-74
2023/07/07 14:25:23;;;;;;;9.65;3.17;;;;;;;;;;5032298;28;20028;-74
2023/07/07 14:28:00;;;;;;;7.20;3.58;;;;;;;;;;5032042;28;20030;-74
2023/07/07 14:30:26;;;;;;;10.27;3.25;;;;;;;;;;5031152;28;20376;-73
2023/07/07 14:32:54;;;;;;;6.38;3.10;;;;;;;;;;5029377;28;20478;-74
2023/07/07 14:35:23;;;;;;;11.50;3.97;;;;;;;;;;5026865;28;20048;-74
2023/07/07 14:37:56;;;;;;;9.80;3.60;;;;;;;;;;5014771;28;20020;-75
2023/07/07 14:40:23;;;;;;;8.40;4.03;;;;;;;;;;5028556;28;20037;-74
2023/07/07 14:42:51;;;;;;;6.53;3.45;;;;;;;;;;5025664;28;20290;-74
2023/07/07 14:45:44;;;;;;;10.55;3.70;;;;;;;;;;5013092;28;20028;-74
2023/07/07 14:48:21;;;;;;;9.52;3.28;;;;;;;;;;5008185;28;20038;-75
2023/07/07 14:50:47;;;;;;;8.27;3.95;;;;;;;;;;5032743;28;20042;-74
2023/07/07 14:53:17;;;;;;;7.63;3.42;;;;;;;;;;5029642;28;20325;-75
2023/07/07 14:55:51;;;;;;;7.80;3.43;;;;;;;;;;5032028;28;20494;-74